Burns, Colorado
Current Conditions -  °F | °C
As of 12:15 AM on Saturday 01 Nov 2014 (Local Time) from KEGE Reporting Station
Clear Clear  
Wind Chill: 39°   Ceiling: Unl
Heat Index: 39°   Visibility: 10mi
Dew Point: 25°   Wind: 0mph
Humidity: 56%   Direction: NA
Pressure: 30.14"   Gusts: NA
Location:  39.87°N, 106.89°W
Report Text: KEGE 010615Z AUTO 00000KT 10SM CLR 04/M04 A3014 RMK AO1
Loading
Personal Weather Stations






























Interactive Weather Map
Tropical Storm Tracking
New forecast layout! Learn more

10-Day Weather Forecast

Advertisements
Track Severe Weather on mobile